Time;durP1;ratioP1;P1;durP2;ratioP2;P2;SDS_P1;SDS_P2;PMS_P1;PMS_P2;Temp;Humidity;BMP_temperature;BMP_pressure;BME280_temperature;BME280_humidity;BME280_pressure;Samples;Min_cycle;Max_cycle;Signal;HPM_P1;HPM_P2
2023/12/15 00:00:13;0.00;0.00;0.62;0.00;0.00;0.62;8.97;6.63;;;21.00;27.20;;;;;;2260469;61;20439;-52
2023/12/15 00:02:58;0.00;0.00;0.62;0.00;0.00;0.62;6.83;6.07;;;21.00;27.20;;;;;;2259901;61;20408;-54
2023/12/15 00:05:42;0.00;0.00;0.62;0.00;0.00;0.62;7.73;6.93;;;21.00;27.20;;;;;;2256985;61;20376;-56
2023/12/15 00:08:27;0.00;0.00;0.62;0.00;0.00;0.62;7.40;6.60;;;21.00;27.20;;;;;;2260738;61;20451;-54
2023/12/15 00:11:13;0.00;0.00;0.62;0.00;0.00;0.62;8.50;6.90;;;21.00;27.20;;;;;;2260784;61;20964;-58
2023/12/15 00:13:57;0.00;0.00;0.62;0.00;0.00;0.62;7.80;6.63;;;21.00;27.20;;;;;;2260199;61;20766;-55
2023/12/15 00:16:42;0.00;0.00;0.62;0.00;0.00;0.62;7.70;6.43;;;21.00;27.20;;;;;;2260437;61;20725;-57
2023/12/15 00:19:26;0.00;0.00;0.62;0.00;0.00;0.62;7.90;7.10;;;21.00;27.20;;;;;;2260691;61;20360;-57
2023/12/15 00:22:11;0.00;0.00;0.62;0.00;0.00;0.62;7.73;6.27;;;21.00;27.20;;;;;;2260185;61;20392;-57
2023/12/15 00:24:56;0.00;0.00;0.62;0.00;0.00;0.62;8.17;6.63;;;21.00;27.70;;;;;;2260540;61;20361;-58
2023/12/15 00:27:42;0.00;0.00;0.62;0.00;0.00;0.62;6.97;5.87;;;21.00;27.20;;;;;;2260223;61;21063;-54
2023/12/15 00:30:26;0.00;0.00;0.62;0.00;0.00;0.62;7.17;5.40;;;21.00;27.20;;;;;;2260585;61;20839;-55
2023/12/15 00:33:11;0.00;0.00;0.62;0.00;0.00;0.62;7.40;6.10;;;21.00;27.20;;;;;;2259784;61;20361;-53
2023/12/15 00:35:58;0.00;0.00;0.62;0.00;0.00;0.62;7.33;5.83;;;21.00;27.20;;;;;;2260237;61;20364;-56
2023/12/15 00:38:42;0.00;0.00;0.62;0.00;0.00;0.62;8.00;6.50;;;21.00;27.20;;;;;;2260717;61;20365;-57
2023/12/15 00:41:27;0.00;0.00;0.62;0.00;0.00;0.62;6.60;5.83;;;21.00;27.20;;;;;;2260552;61;20416;-56
2023/12/15 00:44:13;0.00;0.00;0.62;0.00;0.00;0.62;5.87;5.27;;;21.00;27.20;;;;;;2260104;61;20361;-57
2023/12/15 00:46:57;0.00;0.00;0.62;0.00;0.00;0.62;6.57;5.83;;;21.00;27.20;;;;;;2260679;61;20762;-58
2023/12/15 00:49:42;0.00;0.00;0.62;0.00;0.00;0.62;6.20;5.60;;;21.00;27.20;;;;;;2260157;61;20452;-57
2023/12/15 00:52:26;0.00;0.00;0.62;0.00;0.00;0.62;5.33;4.83;;;21.00;27.20;;;;;;2262406;61;20384;-55
2023/12/15 00:55:11;0.00;0.00;0.62;0.00;0.00;0.62;5.90;5.17;;;21.00;27.20;;;;;;2261472;61;20461;-57
2023/12/15 00:57:55;0.00;0.00;0.62;0.00;0.00;0.62;5.40;4.90;;;21.00;27.20;;;;;;2260195;61;20800;-56
2023/12/15 01:00:41;0.00;0.00;0.62;0.00;0.00;0.62;6.07;5.13;;;21.00;27.20;;;;;;2260176;61;20388;-55
2023/12/15 01:03:26;0.00;0.00;0.62;0.00;0.00;0.62;6.47;4.87;;;21.00;27.20;;;;;;2260123;61;20423;-57
2023/12/15 01:06:10;0.00;0.00;0.62;0.00;0.00;0.62;6.00;5.20;;;21.00;27.20;;;;;;2259644;61;20408;-56
2023/12/15 01:08:55;0.00;0.00;0.62;0.00;0.00;0.62;7.30;5.60;;;21.00;27.20;;;;;;2260500;61;20451;-57
2023/12/15 01:11:39;0.00;0.00;0.62;0.00;0.00;0.62;5.23;4.70;;;21.00;27.20;;;;;;2259589;61;20460;-56
2023/12/15 01:14:24;0.00;0.00;0.62;0.00;0.00;0.62;5.73;4.53;;;21.00;27.20;;;;;;2260633;61;20383;-56
2023/12/15 01:17:10;0.00;0.00;0.62;0.00;0.00;0.62;4.90;4.40;;;21.00;27.20;;;;;;2260263;61;20442;-56
2023/12/15 01:19:54;0.00;0.00;0.62;0.00;0.00;0.62;5.70;4.70;;;21.00;27.20;;;;;;2260118;61;20415;-56
2023/12/15 01:22:39;0.00;0.00;0.62;0.00;0.00;0.62;6.00;5.00;;;21.00;27.20;;;;;;2260139;61;20396;-56
2023/12/15 01:25:23;0.00;0.00;0.62;0.00;0.00;0.62;5.13;4.63;;;21.00;27.20;;;;;;2260410;61;20368;-57
2023/12/15 01:28:08;0.00;0.00;0.62;0.00;0.00;0.62;5.23;4.63;;;21.00;27.20;;;;;;2260122;61;20380;-57
2023/12/15 01:30:52;0.00;0.00;0.62;0.00;0.00;0.62;5.23;4.67;;;21.00;27.20;;;;;;2260242;61;20401;-54
2023/12/15 01:33:38;0.00;0.00;0.62;0.00;0.00;0.62;5.40;4.50;;;20.90;27.20;;;;;;2260022;61;20905;-58
2023/12/15 01:36:23;0.00;0.00;0.62;0.00;0.00;0.62;4.83;4.30;;;21.00;27.20;;;;;;2260248;61;20373;-58
2023/12/15 01:39:07;0.00;0.00;0.62;0.00;0.00;0.62;4.73;4.07;;;21.00;27.20;;;;;;2260322;61;20424;-58
2023/12/15 01:41:52;0.00;0.00;0.62;0.00;0.00;0.62;5.00;4.37;;;21.00;27.10;;;;;;2259896;61;20924;-59
2023/12/15 01:44:36;0.00;0.00;0.62;0.00;0.00;0.62;5.13;4.20;;;21.00;27.20;;;;;;2260178;61;20401;-58
2023/12/15 01:47:24;0.00;0.00;0.62;0.00;0.00;0.62;5.10;4.60;;;20.90;27.10;;;;;;2260314;61;20365;-57
2023/12/15 01:50:11;0.00;0.00;0.62;0.00;0.00;0.62;5.03;3.80;;;21.00;27.20;;;;;;2260186;61;20941;-54
2023/12/15 01:52:55;0.00;0.00;0.62;0.00;0.00;0.62;5.20;4.30;;;20.90;27.10;;;;;;2260047;61;20404;-56
2023/12/15 01:55:40;0.00;0.00;0.62;0.00;0.00;0.62;5.07;4.13;;;20.90;27.10;;;;;;2262329;61;20407;-57
2023/12/15 01:58:24;0.00;0.00;0.62;0.00;0.00;0.62;4.57;3.53;;;20.90;27.10;;;;;;2260213;61;20392;-59
2023/12/15 02:01:09;0.00;0.00;0.62;0.00;0.00;0.62;4.60;4.10;;;20.90;27.10;;;;;;2260227;61;20389;-56
2023/12/15 02:03:54;0.00;0.00;0.62;0.00;0.00;0.62;4.80;3.80;;;20.90;27.10;;;;;;2259797;61;20461;-55
2023/12/15 02:06:40;0.00;0.00;0.62;0.00;0.00;0.62;3.93;3.43;;;20.90;27.10;;;;;;2256550;61;20409;-56
2023/12/15 02:09:24;0.00;0.00;0.62;0.00;0.00;0.62;4.10;3.70;;;20.90;27.10;;;;;;2257729;61;20366;-52
2023/12/15 02:12:09;0.00;0.00;0.62;0.00;0.00;0.62;4.40;4.00;;;21.00;27.20;;;;;;2256318;61;20361;-57
2023/12/15 02:14:53;0.00;0.00;0.62;0.00;0.00;0.62;4.70;3.70;;;20.90;27.10;;;;;;2258337;61;20420;-55
2023/12/15 02:17:38;0.00;0.00;0.62;0.00;0.00;0.62;5.70;4.30;;;20.90;27.10;;;;;;2261420;61;20446;-54
2023/12/15 02:20:23;0.00;0.00;0.62;0.00;0.00;0.62;4.27;3.80;;;20.90;27.10;;;;;;2261347;61;20928;-56
2023/12/15 02:23:09;0.00;0.00;0.62;0.00;0.00;0.62;4.50;3.67;;;20.90;27.10;;;;;;2260976;61;20896;-57
2023/12/15 02:25:53;0.00;0.00;0.62;0.00;0.00;0.62;5.00;3.90;;;20.90;27.10;;;;;;2261261;61;20997;-53
2023/12/15 02:28:38;0.00;0.00;0.62;0.00;0.00;0.62;4.60;3.60;;;20.90;27.10;;;;;;2261131;61;20408;-57
2023/12/15 02:31:23;0.00;0.00;0.62;0.00;0.00;0.62;4.00;3.43;;;20.90;27.10;;;;;;2261189;61;20401;-53
2023/12/15 02:34:08;0.00;0.00;0.62;0.00;0.00;0.62;4.20;3.50;;;20.90;27.10;;;;;;2260760;61;20961;-56
2023/12/15 02:36:53;0.00;0.00;0.62;0.00;0.00;0.62;3.83;3.40;;;20.90;27.10;;;;;;2261449;61;20460;-55
2023/12/15 02:39:39;0.00;0.00;0.62;0.00;0.00;0.62;4.90;3.60;;;20.90;27.10;;;;;;2261463;61;20368;-55
2023/12/15 02:42:24;0.00;0.00;0.62;0.00;0.00;0.62;4.50;3.83;;;20.90;27.10;;;;;;2260685;61;20365;-56
2023/12/15 02:45:09;0.00;0.00;0.62;0.00;0.00;0.62;3.33;2.80;;;20.90;27.10;;;;;;2261190;61;20439;-54
2023/12/15 02:47:54;0.00;0.00;0.62;0.00;0.00;0.62;3.50;3.20;;;20.90;27.10;;;;;;2260627;61;20980;-56
2023/12/15 02:50:38;0.00;0.00;0.62;0.00;0.00;0.62;4.10;3.33;;;20.90;27.10;;;;;;2258826;61;20448;-55
2023/12/15 02:53:23;0.00;0.00;0.62;0.00;0.00;0.62;4.33;3.60;;;20.90;27.10;;;;;;2260769;61;20919;-57
2023/12/15 02:56:09;0.00;0.00;0.62;0.00;0.00;0.62;3.20;2.90;;;20.90;27.10;;;;;;2262518;61;20368;-56
2023/12/15 02:58:54;0.00;0.00;0.62;0.00;0.00;0.62;4.30;3.40;;;20.90;27.10;;;;;;2261214;61;20369;-57
2023/12/15 03:01:39;0.00;0.00;0.62;0.00;0.00;0.62;3.97;3.13;;;20.90;27.10;;;;;;2260864;61;20487;-56
2023/12/15 03:04:23;0.00;0.00;0.62;0.00;0.00;0.62;3.57;2.87;;;20.90;27.10;;;;;;2260993;61;20981;-54
2023/12/15 03:07:07;0.00;0.00;0.62;0.00;0.00;0.62;3.43;3.13;;;20.90;27.10;;;;;;2261329;61;20888;-52
2023/12/15 03:09:52;0.00;0.00;0.62;0.00;0.00;0.62;4.07;3.20;;;20.90;27.10;;;;;;2260954;61;20412;-53
2023/12/15 03:12:38;0.00;0.00;0.62;0.00;0.00;0.62;3.60;3.00;;;20.90;27.10;;;;;;2260377;61;20442;-56
2023/12/15 03:15:22;0.00;0.00;0.62;0.00;0.00;0.62;2.93;2.47;;;20.90;27.10;;;;;;2261329;61;20579;-55
2023/12/15 03:18:07;0.00;0.00;0.62;0.00;0.00;0.62;3.70;3.10;;;20.90;27.10;;;;;;2257505;61;20412;-54
2023/12/15 03:20:51;0.00;0.00;0.62;0.00;0.00;0.62;3.20;2.80;;;20.90;27.10;;;;;;2261272;61;20492;-56
2023/12/15 03:23:36;0.00;0.00;0.62;0.00;0.00;0.62;2.70;2.43;;;20.90;27.10;;;;;;2260984;61;20361;-54
2023/12/15 03:26:21;0.00;0.00;0.62;0.00;0.00;0.62;3.80;3.20;;;20.90;27.10;;;;;;2261039;61;20392;-57
2023/12/15 03:29:07;0.00;0.00;0.62;0.00;0.00;0.62;3.13;2.63;;;20.90;27.10;;;;;;2261437;61;20381;-52
2023/12/15 03:31:52;0.00;0.00;0.62;0.00;0.00;0.62;3.37;2.83;;;20.80;27.00;;;;;;2260648;61;20393;-57
2023/12/15 03:34:36;0.00;0.00;0.62;0.00;0.00;0.62;3.93;2.83;;;20.90;27.10;;;;;;2261585;61;20808;-56
2023/12/15 03:37:21;0.00;0.00;0.62;0.00;0.00;0.62;3.73;2.60;;;20.90;27.10;;;;;;2261212;61;20499;-55
2023/12/15 03:40:07;0.00;0.00;0.62;0.00;0.00;0.62;2.93;2.63;;;20.90;27.10;;;;;;2260436;61;20381;-54
2023/12/15 03:42:52;0.00;0.00;0.62;0.00;0.00;0.62;3.30;2.33;;;20.90;27.20;;;;;;2260975;61;20423;-57
2023/12/15 03:45:38;0.00;0.00;0.62;0.00;0.00;0.62;2.73;2.20;;;20.90;27.10;;;;;;2261310;61;20377;-51
2023/12/15 03:48:23;0.00;0.00;0.62;0.00;0.00;0.62;3.97;2.83;;;20.90;27.10;;;;;;2261025;61;20384;-54
2023/12/15 03:51:08;0.00;0.00;0.62;0.00;0.00;0.62;3.07;2.47;;;20.90;27.10;;;;;;2260938;61;20388;-51
2023/12/15 03:53:53;0.00;0.00;0.62;0.00;0.00;0.62;3.10;2.70;;;20.90;27.10;;;;;;2261044;61;20365;-57
2023/12/15 03:56:37;0.00;0.00;0.62;0.00;0.00;0.62;2.90;2.60;;;20.90;27.10;;;;;;2261231;61;20769;-54
2023/12/15 03:59:22;0.00;0.00;0.62;0.00;0.00;0.62;4.00;3.37;;;20.80;27.00;;;;;;2265050;61;20818;-56
2023/12/15 04:02:12;0.00;0.00;0.62;0.00;0.00;0.62;2.83;2.53;;;20.90;27.10;;;;;;2264573;61;20450;-54
2023/12/15 04:04:56;0.00;0.00;0.62;0.00;0.00;0.62;3.03;2.63;;;20.90;27.10;;;;;;2262122;61;20368;-51
2023/12/15 04:07:41;0.00;0.00;0.62;0.00;0.00;0.62;3.10;2.63;;;20.90;27.10;;;;;;2265072;61;20772;-56
2023/12/15 04:10:25;0.00;0.00;0.62;0.00;0.00;0.62;3.07;2.60;;;20.90;27.10;;;;;;2264745;61;20383;-55
2023/12/15 04:13:10;0.00;0.00;0.62;0.00;0.00;0.62;3.70;3.00;;;20.90;27.10;;;;;;2261703;61;20810;-58
2023/12/15 04:15:54;0.00;0.00;0.62;0.00;0.00;0.62;2.70;2.23;;;20.80;27.00;;;;;;2265463;61;20415;-55
2023/12/15 04:18:40;0.00;0.00;0.62;0.00;0.00;0.62;2.90;2.13;;;20.80;27.10;;;;;;2265014;61;20384;-56
2023/12/15 04:21:25;0.00;0.00;0.62;0.00;0.00;0.62;2.90;2.47;;;20.80;27.00;;;;;;2265188;61;20901;-54
2023/12/15 04:24:10;0.00;0.00;0.62;0.00;0.00;0.62;3.20;2.60;;;20.80;27.00;;;;;;2264888;61;20368;-55
2023/12/15 04:26:55;0.00;0.00;0.62;0.00;0.00;0.62;2.77;2.33;;;20.80;27.10;;;;;;2265184;61;20363;-51
2023/12/15 04:29:39;0.00;0.00;0.62;0.00;0.00;0.62;2.57;2.00;;;20.80;27.00;;;;;;2265285;61;20360;-54
2023/12/15 04:32:24;0.00;0.00;0.62;0.00;0.00;0.62;2.73;2.40;;;20.80;27.10;;;;;;2264613;61;20367;-53
2023/12/15 04:35:10;0.00;0.00;0.62;0.00;0.00;0.62;3.03;2.13;;;20.80;27.00;;;;;;2265463;61;20915;-54
2023/12/15 04:37:55;0.00;0.00;0.62;0.00;0.00;0.62;4.53;2.70;;;20.80;27.00;;;;;;2265021;61;20868;-55
2023/12/15 04:40:39;0.00;0.00;0.62;0.00;0.00;0.62;2.90;2.30;;;20.80;27.00;;;;;;2264741;61;20478;-54
2023/12/15 04:43:24;0.00;0.00;0.62;0.00;0.00;0.62;2.97;2.63;;;20.80;27.00;;;;;;2265091;61;20364;-53
2023/12/15 04:46:08;0.00;0.00;0.62;0.00;0.00;0.62;2.63;1.90;;;20.80;27.00;;;;;;2264972;61;20876;-53
2023/12/15 04:48:55;0.00;0.00;0.62;0.00;0.00;0.62;4.77;2.37;;;20.80;27.10;;;;;;2262060;61;20402;-54
2023/12/15 04:51:41;0.00;0.00;0.62;0.00;0.00;0.62;3.03;2.10;;;20.80;27.00;;;;;;2263723;61;20380;-54
2023/12/15 04:54:25;0.00;0.00;0.62;0.00;0.00;0.62;3.10;2.50;;;20.80;27.10;;;;;;2264877;61;20364;-57
2023/12/15 04:57:10;0.00;0.00;0.62;0.00;0.00;0.62;3.20;2.43;;;20.80;27.10;;;;;;2264138;61;20396;-56
2023/12/15 04:59:55;0.00;0.00;0.62;0.00;0.00;0.62;2.50;1.90;;;20.80;27.00;;;;;;2260426;61;20387;-51
2023/12/15 05:02:39;0.00;0.00;0.62;0.00;0.00;0.62;2.43;2.03;;;20.80;27.60;;;;;;2260504;61;20361;-56
2023/12/15 05:05:24;0.00;0.00;0.62;0.00;0.00;0.62;2.40;1.70;;;20.80;27.10;;;;;;2261403;61;20369;-58
2023/12/15 05:08:10;0.00;0.00;0.62;0.00;0.00;0.62;2.83;2.20;;;20.80;27.10;;;;;;2260886;61;20361;-54
2023/12/15 05:10:54;0.00;0.00;0.62;0.00;0.00;0.62;2.87;2.30;;;20.80;27.10;;;;;;2261159;61;20524;-58
2023/12/15 05:13:39;0.00;0.00;0.62;0.00;0.00;0.62;3.17;2.47;;;20.80;27.10;;;;;;2260435;61;20487;-59
2023/12/15 05:16:24;0.00;0.00;0.62;0.00;0.00;0.62;2.47;1.93;;;20.80;27.10;;;;;;2260779;61;20364;-54
2023/12/15 05:19:08;0.00;0.00;0.62;0.00;0.00;0.62;3.20;2.63;;;20.80;27.10;;;;;;2260939;61;20372;-57
2023/12/15 05:21:53;0.00;0.00;0.62;0.00;0.00;0.62;2.70;2.07;;;20.80;27.10;;;;;;2260338;61;20384;-56
2023/12/15 05:24:39;0.00;0.00;0.62;0.00;0.00;0.62;2.67;2.10;;;20.80;27.10;;;;;;2260960;61;20361;-56
2023/12/15 05:27:24;0.00;0.00;0.62;0.00;0.00;0.62;3.57;2.40;;;20.80;27.10;;;;;;2261048;61;20773;-53
2023/12/15 05:30:11;0.00;0.00;0.62;0.00;0.00;0.62;2.33;1.90;;;20.80;27.10;;;;;;2260944;61;20380;-59
2023/12/15 05:32:56;0.00;0.00;0.62;0.00;0.00;0.62;3.30;2.30;;;20.80;27.20;;;;;;2260638;61;20369;-54
2023/12/15 05:35:40;0.00;0.00;0.62;0.00;0.00;0.62;2.77;2.00;;;20.80;27.10;;;;;;2261235;61;20419;-53
2023/12/15 05:38:25;0.00;0.00;0.62;0.00;0.00;0.62;2.70;2.00;;;20.80;27.10;;;;;;2260629;61;20407;-57
2023/12/15 05:41:11;0.00;0.00;0.62;0.00;0.00;0.62;3.23;1.80;;;20.80;27.10;;;;;;2261465;61;20418;-56
2023/12/15 05:43:56;0.00;0.00;0.62;0.00;0.00;0.62;2.40;1.83;;;20.80;27.20;;;;;;2261381;61;20369;-54
2023/12/15 05:46:41;0.00;0.00;0.62;0.00;0.00;0.62;2.60;2.00;;;20.80;27.10;;;;;;2261506;61;20441;-55
2023/12/15 05:49:26;0.00;0.00;0.62;0.00;0.00;0.62;2.70;2.13;;;20.80;27.10;;;;;;2261617;61;20880;-53
2023/12/15 05:52:10;0.00;0.00;0.62;0.00;0.00;0.62;2.67;2.20;;;20.80;27.20;;;;;;2261107;61;20361;-55
2023/12/15 05:54:55;0.00;0.00;0.62;0.00;0.00;0.62;2.30;1.70;;;20.80;27.20;;;;;;2258227;61;20569;-54
2023/12/15 05:57:41;0.00;0.00;0.62;0.00;0.00;0.62;2.53;1.90;;;20.80;27.40;;;;;;2263592;61;20392;-54
2023/12/15 06:00:26;0.00;0.00;0.62;0.00;0.00;0.62;2.47;1.73;;;20.80;27.20;;;;;;2258014;61;20400;-56
2023/12/15 06:03:10;0.00;0.00;0.62;0.00;0.00;0.62;2.87;2.10;;;20.80;27.20;;;;;;2261364;61;20904;-51
2023/12/15 06:05:55;0.00;0.00;0.62;0.00;0.00;0.62;2.40;1.70;;;20.80;27.20;;;;;;2261554;61;20360;-55
2023/12/15 06:08:39;0.00;0.00;0.62;0.00;0.00;0.62;2.90;2.13;;;20.80;27.20;;;;;;2261258;61;20377;-55
2023/12/15 06:11:24;0.00;0.00;0.62;0.00;0.00;0.62;3.30;2.43;;;20.80;27.20;;;;;;2261522;61;20435;-57
2023/12/15 06:14:10;0.00;0.00;0.62;0.00;0.00;0.62;3.10;2.00;;;20.80;27.20;;;;;;2261449;61;20368;-52
2023/12/15 06:16:55;0.00;0.00;0.62;0.00;0.00;0.62;2.30;1.83;;;20.80;27.20;;;;;;2261312;61;20888;-52
2023/12/15 06:19:40;0.00;0.00;0.62;0.00;0.00;0.62;2.33;2.00;;;20.80;27.20;;;;;;2261348;61;20380;-52
2023/12/15 06:22:24;0.00;0.00;0.62;0.00;0.00;0.62;2.80;2.10;;;20.80;27.20;;;;;;2260804;61;20514;-52
2023/12/15 06:25:09;0.00;0.00;0.62;0.00;0.00;0.62;2.47;2.10;;;20.80;27.10;;;;;;2261390;61;20586;-56
2023/12/15 06:27:54;0.00;0.00;0.62;0.00;0.00;0.62;2.77;2.00;;;20.80;27.10;;;;;;2261537;61;20361;-56
2023/12/15 06:30:40;0.00;0.00;0.62;0.00;0.00;0.62;3.07;2.43;;;20.80;27.20;;;;;;2261305;61;20867;-57
2023/12/15 06:33:25;0.00;0.00;0.62;0.00;0.00;0.62;3.27;2.00;;;20.80;27.20;;;;;;2261129;61;20440;-54
2023/12/15 06:36:11;0.00;0.00;0.62;0.00;0.00;0.62;3.00;2.00;;;20.80;27.20;;;;;;2261386;61;20764;-57
2023/12/15 06:38:55;0.00;0.00;0.62;0.00;0.00;0.62;3.00;2.43;;;20.80;27.20;;;;;;2261184;61;20912;-54
2023/12/15 06:41:40;0.00;0.00;0.62;0.00;0.00;0.62;2.50;1.77;;;20.80;27.20;;;;;;2260943;61;20400;-54
2023/12/15 06:44:24;0.00;0.00;0.62;0.00;0.00;0.62;2.40;1.93;;;20.80;27.20;;;;;;2261186;61;20381;-54
2023/12/15 06:47:10;0.00;0.00;0.62;0.00;0.00;0.62;2.70;2.50;;;20.80;27.20;;;;;;2261372;61;20412;-57
2023/12/15 06:49:55;0.00;0.00;0.62;0.00;0.00;0.62;2.40;1.80;;;20.80;27.10;;;;;;2261699;61;20415;-58
2023/12/15 06:52:40;0.00;0.00;0.62;0.00;0.00;0.62;2.90;1.70;;;20.80;27.20;;;;;;2260306;61;20418;-56
2023/12/15 06:55:24;0.00;0.00;0.62;0.00;0.00;0.62;2.57;1.83;;;20.80;27.20;;;;;;2261312;61;20956;-52
2023/12/15 06:58:09;0.00;0.00;0.62;0.00;0.00;0.62;2.23;1.87;;;20.80;27.10;;;;;;2261863;61;20442;-53
2023/12/15 07:00:54;0.00;0.00;0.62;0.00;0.00;0.62;2.80;2.10;;;20.80;27.20;;;;;;2265071;61;20411;-55
2023/12/15 07:03:39;0.00;0.00;0.62;0.00;0.00;0.62;2.47;1.87;;;20.80;27.10;;;;;;2264837;61;20926;-56
2023/12/15 07:06:24;0.00;0.00;0.62;0.00;0.00;0.62;2.90;2.03;;;20.80;27.20;;;;;;2265355;61;20368;-54
2023/12/15 07:09:11;0.00;0.00;0.62;0.00;0.00;0.62;2.50;2.23;;;20.80;27.10;;;;;;2264890;61;20364;-53
2023/12/15 07:11:58;0.00;0.00;0.62;0.00;0.00;0.62;3.60;2.43;;;20.80;27.10;;;;;;2264633;61;20402;-54
2023/12/15 07:14:42;0.00;0.00;0.62;0.00;0.00;0.62;3.93;2.50;;;20.80;27.20;;;;;;2265010;61;20397;-56
2023/12/15 07:17:27;0.00;0.00;0.62;0.00;0.00;0.62;4.50;3.00;;;20.80;27.20;;;;;;2265252;61;20435;-54
2023/12/15 07:20:13;0.00;0.00;0.62;0.00;0.00;0.62;3.73;2.90;;;20.80;27.20;;;;;;2265301;61;21229;-58
2023/12/15 07:22:58;0.00;0.00;0.62;0.00;0.00;0.62;3.63;3.23;;;20.80;27.20;;;;;;2265165;61;20681;-55
2023/12/15 07:25:42;0.00;0.00;0.62;0.00;0.00;0.62;3.87;3.33;;;20.80;27.20;;;;;;2265215;61;20356;-53
2023/12/15 07:28:27;0.00;0.00;0.62;0.00;0.00;0.62;4.60;3.50;;;20.80;27.20;;;;;;2265419;61;20379;-56
2023/12/15 07:31:11;0.00;0.00;0.62;0.00;0.00;0.62;5.07;3.73;;;20.80;27.20;;;;;;2265430;61;20391;-54
2023/12/15 07:33:56;0.00;0.00;0.62;0.00;0.00;0.62;5.03;3.37;;;20.80;27.20;;;;;;2264892;61;20418;-56
2023/12/15 07:36:42;0.00;0.00;0.62;0.00;0.00;0.62;4.27;3.40;;;20.80;27.20;;;;;;2261511;61;20368;-55
2023/12/15 07:39:27;0.00;0.00;0.62;0.00;0.00;0.62;5.40;3.60;;;20.80;27.20;;;;;;2265182;61;20512;-53
2023/12/15 07:42:12;0.00;0.00;0.62;0.00;0.00;0.62;5.50;4.00;;;20.80;27.20;;;;;;2264789;61;20364;-55
2023/12/15 07:44:56;0.00;0.00;0.62;0.00;0.00;0.62;5.20;3.87;;;20.80;27.20;;;;;;2265183;61;20364;-54
2023/12/15 07:47:41;0.00;0.00;0.62;0.00;0.00;0.62;4.73;3.50;;;20.80;27.20;;;;;;2265302;61;20360;-53
2023/12/15 07:50:25;0.00;0.00;0.62;0.00;0.00;0.62;5.93;4.33;;;20.80;27.20;;;;;;2265306;61;20422;-54
2023/12/15 07:53:11;0.00;0.00;0.62;0.00;0.00;0.62;5.43;4.40;;;20.80;27.20;;;;;;2264534;61;20364;-60
2023/12/15 07:55:56;0.00;0.00;0.62;0.00;0.00;0.62;5.20;4.00;;;20.80;27.20;;;;;;2265135;61;20364;-51
2023/12/15 07:58:40;0.00;0.00;0.62;0.00;0.00;0.62;6.03;5.30;;;20.80;27.20;;;;;;2264207;61;20404;-56
2023/12/15 08:01:25;0.00;0.00;0.62;0.00;0.00;0.62;6.40;4.97;;;20.80;27.20;;;;;;2261178;61;20392;-56
2023/12/15 08:04:10;0.00;0.00;0.62;0.00;0.00;0.62;6.53;5.37;;;20.80;27.20;;;;;;2260934;61;20373;-69
2023/12/15 08:06:55;0.00;0.00;0.62;0.00;0.00;0.62;7.10;4.90;;;20.80;27.20;;;;;;2260801;61;20376;-53
2023/12/15 08:09:40;0.00;0.00;0.62;0.00;0.00;0.62;6.43;5.33;;;20.80;27.20;;;;;;2260654;61;20361;-52
2023/12/15 08:12:25;0.00;0.00;0.62;0.00;0.00;0.62;6.20;5.30;;;20.80;27.20;;;;;;2260424;61;20904;-54
2023/12/15 08:15:10;0.00;0.00;0.62;0.00;0.00;0.62;6.73;4.50;;;20.80;27.20;;;;;;2260771;61;20896;-53
2023/12/15 08:17:56;0.00;0.00;0.62;0.00;0.00;0.62;7.03;5.80;;;20.80;27.20;;;;;;2256332;61;20457;-56
2023/12/15 08:20:41;0.00;0.00;0.62;0.00;0.00;0.62;7.20;5.83;;;20.80;27.20;;;;;;2256268;61;20444;-55
2023/12/15 08:23:27;0.00;0.00;0.62;0.00;0.00;0.62;7.87;4.80;;;20.80;27.20;;;;;;2256472;61;20773;-53
2023/12/15 08:26:20;0.00;0.00;0.62;0.00;0.00;0.62;6.77;5.43;;;20.80;27.20;;;;;;2256242;61;20788;-54
2023/12/15 08:29:05;0.00;0.00;0.62;0.00;0.00;0.62;5.17;4.50;;;20.80;27.20;;;;;;2256551;61;20388;-55
2023/12/15 08:31:50;0.00;0.00;0.62;0.00;0.00;0.62;6.37;5.20;;;20.80;27.20;;;;;;2256646;61;20920;-51
2023/12/15 08:34:34;0.00;0.00;0.62;0.00;0.00;0.62;6.70;5.60;;;20.80;27.20;;;;;;2256871;61;20369;-54
2023/12/15 08:37:19;0.00;0.00;0.62;0.00;0.00;0.62;6.80;5.60;;;20.80;27.20;;;;;;2256341;61;20439;-57
2023/12/15 08:40:05;0.00;0.00;0.62;0.00;0.00;0.62;7.10;5.43;;;20.80;27.20;;;;;;2256635;61;20386;-57
2023/12/15 08:42:51;0.00;0.00;0.62;0.00;0.00;0.62;6.87;5.70;;;20.80;27.20;;;;;;2256082;61;20365;-57
2023/12/15 08:45:36;0.00;0.00;0.62;0.00;0.00;0.62;6.90;5.50;;;20.80;27.20;;;;;;2256675;61;20377;-57
2023/12/15 08:48:21;0.00;0.00;0.62;0.00;0.00;0.62;6.63;5.50;;;20.70;27.10;;;;;;2256576;61;20896;-54
2023/12/15 08:51:06;0.00;0.00;0.62;0.00;0.00;0.62;10.90;4.43;;;20.80;27.20;;;;;;2256483;61;20389;-55
2023/12/15 08:53:51;0.00;0.00;0.62;0.00;0.00;0.62;7.77;5.90;;;20.80;27.20;;;;;;2256338;61;20815;-54
2023/12/15 08:56:35;0.00;0.00;0.62;0.00;0.00;0.62;7.53;6.00;;;20.80;27.20;;;;;;2256208;61;20362;-55
2023/12/15 08:59:21;0.00;0.00;0.62;0.00;0.00;0.62;5.87;4.97;;;20.80;27.20;;;;;;2257959;61;20515;-52
2023/12/15 09:02:06;0.00;0.00;0.62;0.00;0.00;0.62;6.97;6.27;;;20.80;27.20;;;;;;2260070;61;20386;-53
2023/12/15 09:04:51;0.00;0.00;0.62;0.00;0.00;0.62;6.90;5.60;;;20.80;27.20;;;;;;2260358;61;20391;-50
2023/12/15 09:07:35;0.00;0.00;0.62;0.00;0.00;0.62;5.90;5.10;;;20.80;27.20;;;;;;2260393;61;20788;-56
2023/12/15 09:10:22;0.00;0.00;0.62;0.00;0.00;0.62;6.47;5.53;;;20.80;27.20;;;;;;2260119;61;20523;-54
2023/12/15 09:13:07;0.00;0.00;0.62;0.00;0.00;0.62;7.10;5.97;;;20.80;27.20;;;;;;2259864;61;20365;-55
2023/12/15 09:15:52;0.00;0.00;0.62;0.00;0.00;0.62;7.57;6.00;;;20.80;27.20;;;;;;2260174;61;20365;-55
2023/12/15 09:18:37;0.00;0.00;0.62;0.00;0.00;0.62;6.30;5.53;;;20.80;27.20;;;;;;2260312;61;20476;-55
2023/12/15 09:21:22;0.00;0.00;0.62;0.00;0.00;0.62;5.67;4.90;;;20.70;27.10;;;;;;2260090;61;20380;-51
2023/12/15 09:24:07;0.00;0.00;0.62;0.00;0.00;0.62;8.20;5.90;;;20.80;27.20;;;;;;2260630;61;20763;-55
2023/12/15 09:26:52;0.00;0.00;0.62;0.00;0.00;0.62;7.10;6.17;;;20.80;27.20;;;;;;2260442;61;20368;-55
2023/12/15 09:29:37;0.00;0.00;0.62;0.00;0.00;0.62;6.07;5.47;;;20.80;27.20;;;;;;2257006;61;20372;-54
2023/12/15 09:32:23;0.00;0.00;0.62;0.00;0.00;0.62;6.00;5.20;;;20.80;27.20;;;;;;2259852;61;20504;-55
2023/12/15 09:35:07;0.00;0.00;0.62;0.00;0.00;0.62;7.10;5.70;;;20.80;27.20;;;;;;2260096;61;20892;-58
2023/12/15 09:37:52;0.00;0.00;0.62;0.00;0.00;0.62;6.83;4.93;;;20.80;27.20;;;;;;2260313;61;20423;-53
2023/12/15 09:40:37;0.00;0.00;0.62;0.00;0.00;0.62;6.30;5.20;;;20.80;27.20;;;;;;2260289;61;20459;-54
2023/12/15 09:43:22;0.00;0.00;0.62;0.00;0.00;0.62;7.27;5.60;;;20.80;27.20;;;;;;2259411;61;20357;-55
2023/12/15 09:46:07;0.00;0.00;0.62;0.00;0.00;0.62;6.23;5.33;;;20.80;27.20;;;;;;2260312;61;20500;-53
2023/12/15 09:48:53;0.00;0.00;0.62;0.00;0.00;0.62;7.40;5.33;;;20.80;27.20;;;;;;2260322;61;20373;-51
2023/12/15 09:51:42;0.00;0.00;0.62;0.00;0.00;0.62;7.00;5.13;;;20.80;27.20;;;;;;2259718;61;20456;-59
2023/12/15 09:54:28;0.00;0.00;0.62;0.00;0.00;0.62;7.07;5.17;;;20.80;27.20;;;;;;2260294;61;20361;-53
2023/12/15 09:57:13;0.00;0.00;0.62;0.00;0.00;0.62;7.37;5.97;;;20.80;27.20;;;;;;2259887;61;20496;-56
2023/12/15 09:59:58;0.00;0.00;0.62;0.00;0.00;0.62;5.90;4.90;;;20.80;27.20;;;;;;2259423;61;20400;-53
2023/12/15 10:02:43;0.00;0.00;0.62;0.00;0.00;0.62;6.50;5.33;;;20.80;27.20;;;;;;2259873;61;20376;-52
2023/12/15 10:05:29;0.00;0.00;0.62;0.00;0.00;0.62;6.23;5.17;;;20.80;27.20;;;;;;2242046;61;1099625;-57
2023/12/15 10:08:14;0.00;0.00;0.62;0.00;0.00;0.62;8.00;5.70;;;20.80;27.20;;;;;;2256271;61;20354;-54
2023/12/15 10:10:59;0.00;0.00;0.62;0.00;0.00;0.62;6.47;5.33;;;20.80;27.20;;;;;;2256576;61;20827;-55
2023/12/15 10:13:43;0.00;0.00;0.62;0.00;0.00;0.62;6.23;5.10;;;20.80;27.20;;;;;;2256177;61;20441;-52
2023/12/15 10:16:28;0.00;0.00;0.62;0.00;0.00;0.62;7.30;5.27;;;20.80;27.20;;;;;;2256379;61;20408;-56
2023/12/15 10:19:12;0.00;0.00;0.62;0.00;0.00;0.62;6.93;5.20;;;20.80;27.20;;;;;;2255974;61;20389;-52
2023/12/15 10:22:01;0.00;0.00;0.62;0.00;0.00;0.62;5.53;4.40;;;20.80;27.20;;;;;;2256247;61;20390;-56
2023/12/15 10:24:46;0.00;0.00;0.62;0.00;0.00;0.62;5.30;4.50;;;20.80;27.20;;;;;;2253234;61;20362;-55
2023/12/15 10:27:31;0.00;0.00;0.62;0.00;0.00;0.62;5.40;4.90;;;20.80;27.20;;;;;;2256445;61;20373;-50
2023/12/15 10:30:16;0.00;0.00;0.62;0.00;0.00;0.62;7.87;5.33;;;20.80;27.20;;;;;;2257160;61;20381;-58
2023/12/15 10:33:01;0.00;0.00;0.62;0.00;0.00;0.62;6.50;5.10;;;20.80;27.20;;;;;;2253504;61;20369;-56
2023/12/15 10:35:47;0.00;0.00;0.62;0.00;0.00;0.62;6.50;4.63;;;20.80;27.20;;;;;;2257022;61;20724;-55
2023/12/15 10:38:34;0.00;0.00;0.62;0.00;0.00;0.62;6.20;4.77;;;20.80;27.20;;;;;;2256974;61;20812;-53
2023/12/15 10:41:19;0.00;0.00;0.62;0.00;0.00;0.62;5.77;4.70;;;20.80;27.20;;;;;;2256591;61;20971;-58
2023/12/15 10:44:05;0.00;0.00;0.62;0.00;0.00;0.62;5.70;5.17;;;20.80;27.20;;;;;;2257196;61;20763;-54
2023/12/15 10:46:50;0.00;0.00;0.62;0.00;0.00;0.62;5.60;4.83;;;20.80;27.20;;;;;;2257231;61;20373;-55
2023/12/15 10:49:36;0.00;0.00;0.62;0.00;0.00;0.62;5.60;4.40;;;20.80;27.20;;;;;;2256646;61;20362;-55